Terminal Aerodrome Forecast
Issued by NWS

Home | Current Version | Previous Version | Text Only | Print | Product List | Glossary On
Versions: 1 2 3 4 5 6 7 8 9 10 11 12
158
FTUS43 KMQT 282324
TAFSAW
TAF
KSAW 282324Z 2900/2924 01005KT P6SM SCT200
     FM290900 02003KT 5SM BR BKN008
     FM291300 03004KT P6SM SCT008
     FM291400 04005KT P6SM SCT100
     FM292100 06006KT P6SM BKN150=

USA.gov is the U.S. government's official web portal to all federal, state and local government web resources and services.